Warning: Javascript must be enabled to use all the features on this page!


Page Loading - Please Wait...

Click to hideNews Bulletins

Peak Streamflow for the Nation

USGS 01566000 Tuscarora Creek near Port Royal, PA

Juniata County, Pennsylvania
Hydrologic Unit Code 02050304
Latitude  40°30'55", Longitude  77°25'10" NAD27
Drainage area 214  square miles
Gage datum 420.47 feet above NGVD29
Output formats
Table
Graph
Tab-separated file
peakfq (watstore) format
Reselect output format
Water
Year
Date Gage
Height
(feet)
Stream-
flow
(cfs)
1889 1889-06-01 20.50  
1912 1912-05-13 12.40 9,950
1913 1913-03-27 10.80 7,030
1914 1914-01-31 8.90 4,460
1915 1915-02-24 9.40 5,080
1916 1916-06-17 11.80 8,790
1917 1917-03-12 8.80 4,340
1918 1918-02-26 11.40 8,080
1919 1919-05-21 12.20 9,550
1920 1920-03-13   5,5001
1921 1921-05-05 11.68 8,600
1922 1921-11-28 8.40 3,880
1923 1923-03-03 8.30 3,780
1924 1924-05-12 12.40 10,000
1925 1925-02-12 9.20 4,820
1926 1926-02-26 10.20 6,180
1927 1926-11-16 12.80 10,800
1928 1927-10-19 11.10 7,020
1929 1929-04-16 10.40 5,850
1930 1929-10-23 16.21 13,000
1931 1931-07-11 9.44 4,390
1932 1932-04-01 8.71 3,510
1933 1933-08-24 13.41 8,900
1934 1934-09-17 12.23 6,720
1935 1934-12-01 13.05 7,520
1936 1936-03-18   14,4002
1937 1937-04-27 15.68 12,200
1938 1937-11-13 10.06 4,500
1939 1939-02-03 8.83 3,230
1940 1940-03-31 10.97 5,490
1941 1941-04-06 8.23 2,690
1942 1942-05-22 14.44 10,100
1943 1942-12-30 11.73 6,330
1944 1944-04-25 9.72 4,100
1945 1945-05-18 9.67 4,100
1946 1945-11-29 11.44 5,970
1947 1947-07-16 12.16 6,960
1948 1948-05-13 9.87 4,300
1949 1948-12-30 10.18 4,610
1950 1950-02-15 8.42 2,850
1951 1950-11-25 19.73 19,400
1952 1952-03-11 13.37 8,590
1953 1952-11-22 16.79 14,100
1954 1954-03-02 12.48 7,350
1955 1954-10-16 11.87 6,570
1956 1955-10-15 10.70 5,160
1957 1956-11-01 11.93 6,570
1958 1958-02-28 10.40 4,830
1972 1972-06-23 25.10  
1988 1988-05-19 10.64 4,380
1989 1989-07-20 13.22 7,210
1990 1990-05-30 6.44 1,380
1996 1996-09-07 21.27 25,000
1997 1996-10-19 12.01 5,870
1998 1997-11-08 15.30 10,700
1999 1999-01-24 11.98 5,840
2000 1999-12-15 7.572 2,010
2001 2001-05-26 9.11 3,080
2002 2002-05-18 9.44 3,690
2003 2003-01-02 10.76 4,900
2004 2004-09-18 18.49 14,200
2005 2005-03-29 13.27 6,670
2006 2005-11-30 13.00 6,370
2007 2007-03-02 9.36 3,320
2008 2008-03-05 15.92 9,900
2009 2008-12-20 9.20 3,270
2010 2010-03-14 13.94 7,790
2011 2011-09-07 16.36 11,000
2012 2011-11-23 12.99 6,720
2013 2012-10-30 11.18 4,930
2014 2014-05-16 16.54 11,300
2015 2015-07-07 7.812 2,260
2016 2016-02-25 10.55 4,470
2017 2017-05-06 10.76 4,590
2018 2018-07-26 13.15 6,890
2019 2018-12-16 10.20 4,270
2020 2020-05-01 12.74 6,580
2021 2021-09-02 16.11 10,100
?
  Peak Gage-Height Qualification Codes.
?
  Peak Streamflow Qualification Codes.